Time;durP1;ratioP1;P1;durP2;ratioP2;P2;SDS_P1;SDS_P2;PMS_P1;PMS_P2;Temp;Humidity;BMP_temperature;BMP_pressure;BME280_temperature;BME280_humidity;BME280_pressure;Samples;Min_cycle;Max_cycle;Signal;HPM_P1;HPM_P2
2021/09/17 00:01:31;;;;;;;15.38;9.15;;;;;;;15.06;100.00;97706.81;4956654;28;20047;-78
2021/09/17 00:03:58;;;;;;;15.57;8.65;;;;;;;15.12;100.00;97705.47;4973411;28;20527;-80
2021/09/17 00:06:25;;;;;;;12.70;7.40;;;;;;;15.08;100.00;97699.09;4957029;28;20056;-78
2021/09/17 00:08:52;;;;;;;19.00;8.43;;;;;;;15.10;100.00;97705.78;4956582;28;20053;-78
2021/09/17 00:11:19;;;;;;;16.92;8.02;;;;;;;15.06;100.00;97702.19;4956375;28;20073;-78
2021/09/17 00:13:47;;;;;;;15.43;7.82;;;;;;;15.08;100.00;97699.09;4973893;28;20039;-78
2021/09/17 00:16:14;;;;;;;11.73;7.38;;;;;;;15.11;100.00;97692.97;4974414;28;20049;-79
2021/09/17 00:18:41;;;;;;;14.35;7.95;;;;;;;15.09;100.00;97695.25;4956846;28;20050;-79
2021/09/17 00:21:07;;;;;;;12.73;6.97;;;;;;;15.12;100.00;97691.84;4957016;28;20051;-79
2021/09/17 00:23:34;;;;;;;12.95;6.90;;;;;;;15.11;100.00;97703.88;4957485;28;20583;-78
2021/09/17 00:28:31;;;;;;;12.15;6.03;;;;;;;15.09;100.00;97696.03;4964906;28;20051;-81
2021/09/17 00:31:47;;;;;;;12.75;5.28;;;;;;;15.08;100.00;97691.72;4974227;28;20043;-81
2021/09/17 00:35:30;;;;;;;9.60;5.28;;;;;;;15.06;100.00;97683.09;4946660;28;20053;-84
2021/09/17 00:38:14;;;;;;;10.35;4.90;;;;;;;15.05;100.00;97661.59;4940707;28;20046;-83
2021/09/17 00:41:22;;;;;;;9.43;4.65;;;;;;;15.16;100.00;97698.19;4968738;23;20035;-80
2021/09/17 00:43:49;;;;;;;8.30;4.68;;;;;;;15.08;100.00;97689.00;4977576;28;20553;-80
2021/09/17 00:46:15;;;;;;;9.63;4.35;;;;;;;15.16;100.00;97688.06;4960947;28;20050;-79
2021/09/17 00:48:42;;;;;;;10.18;3.60;;;;;;;15.12;100.00;97686.38;4977591;28;20046;-78
2021/09/17 00:51:09;;;;;;;6.75;4.00;;;;;;;15.17;100.00;97691.59;4984563;28;20060;-82
2021/09/17 00:53:36;;;;;;;8.88;3.78;;;;;;;15.12;100.00;97700.81;5018936;28;20053;-80
2021/09/17 00:56:04;;;;;;;6.38;3.50;;;;;;;15.20;100.00;97690.91;5021581;28;20050;-79
2021/09/17 00:58:31;;;;;;;10.93;3.88;;;;;;;15.21;100.00;97684.31;5003417;28;20050;-80
2021/09/17 01:00:57;;;;;;;5.82;3.55;;;;;;;15.13;100.00;97687.97;5023846;28;20065;-79
2021/09/17 01:03:24;;;;;;;11.25;4.10;;;;;;;15.18;100.00;97685.78;5023425;28;20069;-80
2021/09/17 01:05:51;;;;;;;6.20;3.67;;;;;;;15.12;100.00;97686.38;5030936;28;20202;-80
2021/09/17 01:08:18;;;;;;;7.82;3.70;;;;;;;15.10;100.00;97686.72;5015454;28;20094;-79
2021/09/17 01:10:44;;;;;;;10.15;3.60;;;;;;;15.10;100.00;97688.66;5033642;28;20026;-80
2021/09/17 01:13:11;;;;;;;8.85;3.58;;;;;;;14.97;100.00;97671.50;5015015;28;20041;-80
2021/09/17 01:15:38;;;;;;;7.32;4.38;;;;;;;15.10;100.00;97683.97;5015098;28;20038;-80
2021/09/17 01:18:04;;;;;;;6.25;3.58;;;;;;;15.13;100.00;97672.41;5032614;28;20087;-79
2021/09/17 01:20:32;;;;;;;7.32;4.00;;;;;;;15.15;100.00;97680.25;5014074;28;20112;-79
2021/09/17 01:22:58;;;;;;;7.30;3.85;;;;;;;15.10;100.00;97667.63;5030400;28;20064;-80
2021/09/17 01:25:25;;;;;;;7.70;4.15;;;;;;;15.17;100.00;97672.50;5013865;28;20053;-81
2021/09/17 01:27:53;;;;;;;7.43;4.22;;;;;;;15.10;100.00;97667.63;5028309;28;20513;-82
2021/09/17 01:30:21;;;;;;;9.45;4.78;;;;;;;15.19;100.00;97667.50;5026528;28;20049;-81
2021/09/17 01:32:48;;;;;;;9.18;5.10;;;;;;;15.19;100.00;97667.50;5025291;28;20042;-81
2021/09/17 01:35:18;;;;;;;12.13;4.70;;;;;;;15.23;100.00;97674.66;5027134;28;20065;-81
2021/09/17 01:37:47;;;;;;;11.55;5.05;;;;;;;15.20;100.00;97669.09;5028228;28;20060;-82
2021/09/17 01:40:14;;;;;;;16.30;5.45;;;;;;;15.16;100.00;97663.53;5027326;28;20083;-81
2021/09/17 01:42:41;;;;;;;11.80;5.80;;;;;;;15.11;100.00;97662.97;5027892;28;20403;-81
2021/09/17 01:45:09;;;;;;;9.82;5.80;;;;;;;15.20;100.00;97669.88;5025646;28;20057;-80
2021/09/17 01:47:37;;;;;;;13.45;6.28;;;;;;;15.15;100.00;97653.75;5027923;28;20042;-81
2021/09/17 01:50:05;;;;;;;12.57;7.15;;;;;;;15.18;100.00;97665.91;5008795;28;20103;-80
2021/09/17 01:52:32;;;;;;;11.82;7.05;;;;;;;15.11;100.00;97650.13;5009451;28;20034;-81
2021/09/17 01:54:59;;;;;;;14.82;6.90;;;;;;;15.12;100.00;97654.47;5028627;28;20053;-81
2021/09/17 01:57:26;;;;;;;15.75;7.20;;;;;;;15.12;100.00;97650.94;5028851;28;20030;-81
2021/09/17 01:59:52;;;;;;;12.10;7.03;;;;;;;15.15;100.00;97651.03;4987347;28;20065;-80
2021/09/17 02:02:19;;;;;;;15.40;8.05;;;;;;;15.05;100.00;97648.78;4997453;28;20042;-79
2021/09/17 02:04:45;;;;;;;15.07;7.60;;;;;;;15.09;100.00;97649.69;5018514;28;20088;-79
2021/09/17 02:07:12;;;;;;;18.42;7.93;;;;;;;15.06;100.00;97657.75;5001883;28;20045;-80
2021/09/17 02:09:39;;;;;;;18.73;9.18;;;;;;;15.03;100.00;97651.06;5022248;28;20046;-82
2021/09/17 02:12:06;;;;;;;15.32;8.82;;;;;;;15.10;100.00;97651.25;5025941;28;20049;-79
2021/09/17 02:14:32;;;;;;;15.05;9.60;;;;;;;15.09;100.00;97638.78;5011885;28;20130;-80
2021/09/17 02:16:59;;;;;;;14.50;9.05;;;;;;;15.08;100.00;97653.53;5029035;28;20045;-80
2021/09/17 02:19:26;;;;;;;18.23;10.18;;;;;;;15.08;100.00;97653.53;5026279;28;20073;-81
2021/09/17 02:21:55;;;;;;;21.75;9.48;;;;;;;15.11;100.00;97636.50;5010669;28;20018;-81
2021/09/17 02:24:22;;;;;;;20.48;10.52;;;;;;;15.15;100.00;97642.06;5027552;28;20042;-80
2021/09/17 02:26:48;;;;;;;22.35;10.65;;;;;;;15.13;100.00;97636.94;4994955;28;20050;-81
2021/09/17 02:29:15;;;;;;;16.80;10.60;;;;;;;15.05;100.00;97637.88;5028830;28;20049;-79
2021/09/17 02:31:42;;;;;;;21.30;11.43;;;;;;;15.04;100.00;97643.66;5027519;28;20046;-80
2021/09/17 02:34:10;;;;;;;18.23;11.50;;;;;;;15.08;100.00;97650.81;5011417;28;20034;-81
2021/09/17 02:36:37;;;;;;;22.60;11.98;;;;;;;15.08;100.00;97639.09;5028231;28;20038;-80
2021/09/17 02:39:04;;;;;;;20.77;12.02;;;;;;;15.03;100.00;97631.97;5006747;28;20042;-81
2021/09/17 02:41:34;;;;;;;23.80;12.73;;;;;;;15.04;100.00;97641.75;4993445;28;20042;-80
2021/09/17 02:44:02;;;;;;;22.80;12.68;;;;;;;14.96;100.00;97618.94;5015995;28;20029;-81
2021/09/17 02:46:29;;;;;;;29.38;12.68;;;;;;;14.97;100.00;97642.31;5018555;28;20045;-81
2021/09/17 02:48:55;;;;;;;23.52;13.35;;;;;;;15.05;100.00;97642.50;5021700;28;20625;-80
2021/09/17 02:51:22;;;;;;;23.98;13.55;;;;;;;15.01;100.00;97645.16;5007001;28;20104;-80
2021/09/17 02:53:51;;;;;;;23.25;13.27;;;;;;;14.97;100.00;97625.94;5025475;28;20046;-80
2021/09/17 02:56:18;;;;;;;29.40;14.60;;;;;;;15.01;100.00;97639.69;5007251;28;20042;-82
2021/09/17 02:58:45;;;;;;;25.17;14.18;;;;;;;15.12;100.00;97640.03;5026066;28;20050;-79
2021/09/17 03:01:11;;;;;;;28.02;15.55;;;;;;;15.02;100.00;97640.50;5025198;28;20080;-80
2021/09/17 03:03:38;;;;;;;27.45;15.93;;;;;;;15.04;100.00;97632.75;5026665;28;20061;-79
2021/09/17 03:06:05;;;;;;;30.83;15.68;;;;;;;15.05;100.00;97634.34;5026870;28;20045;-81
2021/09/17 03:08:32;;;;;;;26.83;16.73;;;;;;;14.99;100.00;97629.13;5007447;28;20132;-82
2021/09/17 03:10:59;;;;;;;31.67;16.52;;;;;;;15.05;100.00;97642.50;5028632;28;20038;-81
2021/09/17 03:13:26;;;;;;;28.95;16.25;;;;;;;15.07;100.00;97641.06;5010047;28;20084;-80
2021/09/17 03:15:54;;;;;;;29.95;16.90;;;;;;;15.07;100.00;97629.34;5027368;28;20049;-81
2021/09/17 03:18:21;;;;;;;23.63;15.95;;;;;;;15.13;100.00;97636.16;5028802;28;20046;-79
2021/09/17 03:20:50;;;;;;;26.58;16.20;;;;;;;15.04;100.00;97635.50;5026307;28;20041;-80
2021/09/17 03:23:18;;;;;;;28.73;16.80;;;;;;;14.92;100.00;97637.09;5009287;28;20441;-80
2021/09/17 03:25:45;;;;;;;29.42;16.48;;;;;;;15.04;100.00;97624.59;5027674;28;20537;-80
2021/09/17 03:28:12;;;;;;;25.13;16.38;;;;;;;15.07;100.00;97618.44;5009610;28;20048;-80
2021/09/17 03:30:39;;;;;;;29.15;17.13;;;;;;;15.02;100.00;97632.31;5026835;28;20065;-80
2021/09/17 03:33:05;;;;;;;31.77;17.90;;;;;;;15.02;100.00;97641.28;5006751;28;20038;-78
2021/09/17 03:35:32;;;;;;;29.95;16.58;;;;;;;15.04;100.00;97628.13;5026315;28;20049;-80
2021/09/17 03:37:59;;;;;;;29.15;16.25;;;;;;;15.02;100.00;97624.91;5026375;28;20288;-81
2021/09/17 03:40:25;;;;;;;33.72;16.52;;;;;;;14.96;100.00;97635.28;5028168;28;20053;-80
2021/09/17 03:42:52;;;;;;;32.00;16.05;;;;;;;15.00;100.00;97629.91;5010856;28;20045;-79
2021/09/17 03:45:18;;;;;;;30.20;15.85;;;;;;;15.02;100.00;97618.69;5028582;28;20046;-79
2021/09/17 03:47:45;;;;;;;35.97;17.27;;;;;;;15.00;100.00;97627.19;5042552;28;20048;-79
2021/09/17 03:50:16;;;;;;;30.27;17.08;;;;;;;14.95;100.00;97621.97;5029107;28;20068;-81
2021/09/17 03:52:42;;;;;;;28.02;17.45;;;;;;;14.93;100.00;97627.78;5034124;28;20112;-80
2021/09/17 03:55:09;;;;;;;30.85;17.80;;;;;;;14.94;100.00;97629.34;5025757;28;20041;-78
2021/09/17 03:57:36;;;;;;;27.92;17.38;;;;;;;14.83;100.00;97622.81;5009850;28;20041;-81
2021/09/17 04:00:05;;;;;;;30.10;17.90;;;;;;;14.81;100.00;97629.72;5027517;28;20042;-81
2021/09/17 04:02:31;;;;;;;28.42;16.88;;;;;;;14.82;100.00;97620.41;5023369;28;20046;-81
2021/09/17 04:04:59;;;;;;;27.45;16.98;;;;;;;14.76;100.00;97624.53;5008836;28;20084;-82
2021/09/17 04:07:25;;;;;;;28.52;17.95;;;;;;;14.81;100.00;97627.78;5027282;28;20071;-81
2021/09/17 04:09:52;;;;;;;28.73;17.52;;;;;;;14.84;100.00;97620.88;5008946;28;20101;-79
2021/09/17 04:12:18;;;;;;;30.50;17.77;;;;;;;14.70;100.00;97607.59;5026440;28;20046;-82
2021/09/17 04:14:46;;;;;;;25.02;16.55;;;;;;;14.83;100.00;97622.00;5006287;28;20409;-81
2021/09/17 04:17:12;;;;;;;32.03;16.55;;;;;;;14.69;100.00;97610.66;5022080;28;20052;-80
2021/09/17 04:19:39;;;;;;;28.42;16.38;;;;;;;14.78;100.00;97612.13;5026092;28;20052;-81
2021/09/17 04:22:05;;;;;;;27.38;16.02;;;;;;;14.87;100.00;97618.25;5022293;28;20048;-80
2021/09/17 04:24:32;;;;;;;30.10;17.10;;;;;;;14.76;100.00;97619.06;5023773;28;20049;-81
2021/09/17 04:26:58;;;;;;;30.80;15.95;;;;;;;14.74;100.00;97622.13;5007582;28;20477;-82
2021/09/17 04:29:26;;;;;;;24.98;15.50;;;;;;;14.69;100.00;97616.91;5028785;28;20038;-80
2021/09/17 04:31:52;;;;;;;28.63;15.63;;;;;;;14.71;100.00;97619.31;5025839;28;20052;-80
2021/09/17 04:34:19;;;;;;;25.77;16.17;;;;;;;14.59;100.00;97611.91;5021798;28;20034;-82
2021/09/17 04:36:45;;;;;;;25.95;15.25;;;;;;;14.65;100.00;97618.72;5024213;28;20104;-83
2021/09/17 04:39:12;;;;;;;29.08;15.80;;;;;;;14.64;100.00;97619.84;5020065;28;20048;-82
2021/09/17 04:41:38;;;;;;;26.20;15.45;;;;;;;14.60;100.00;97629.84;5019808;28;20049;-82
2021/09/17 04:44:05;;;;;;;24.67;14.73;;;;;;;14.70;100.00;97623.16;5020284;28;20073;-84
2021/09/17 04:46:33;;;;;;;20.60;13.15;;;;;;;14.64;100.00;97624.50;5004358;28;20038;-82
2021/09/17 04:49:00;;;;;;;20.58;13.32;;;;;;;14.73;100.00;97634.16;5022462;28;20041;-81
2021/09/17 04:51:31;;;;;;;20.67;13.15;;;;;;;14.78;100.00;97636.66;5022002;28;20116;-82
2021/09/17 04:53:58;;;;;;;20.10;11.32;;;;;;;14.68;100.00;97630.88;5005787;28;20046;-82
2021/09/17 04:56:24;;;;;;;18.17;11.85;;;;;;;14.79;100.00;97629.25;5013566;28;20049;-82
2021/09/17 04:58:51;;;;;;;18.58;11.43;;;;;;;14.72;100.00;97626.31;5017847;28;20053;-86
2021/09/17 05:01:18;;;;;;;20.13;11.20;;;;;;;14.78;100.00;97628.50;5002345;28;20042;-83
2021/09/17 05:03:44;;;;;;;19.65;10.75;;;;;;;14.79;100.00;97630.06;4985115;28;20081;-82
2021/09/17 05:06:11;;;;;;;17.20;11.13;;;;;;;14.71;100.00;97628.25;5019791;28;20046;-78
2021/09/17 05:08:38;;;;;;;17.25;11.63;;;;;;;14.75;100.00;97631.09;4998627;28;20053;-83
2021/09/17 05:11:04;;;;;;;21.92;10.30;;;;;;;14.76;100.00;97630.75;5013617;28;20057;-81
2021/09/17 05:13:31;;;;;;;20.23;11.23;;;;;;;14.63;100.00;97637.34;5012970;28;20601;-80
2021/09/17 05:15:58;;;;;;;18.63;10.25;;;;;;;14.71;100.00;97622.78;5014542;28;20037;-82
2021/09/17 05:18:24;;;;;;;17.85;9.93;;;;;;;14.65;100.00;97629.63;4994703;28;20049;-80
2021/09/17 05:20:51;;;;;;;18.60;10.63;;;;;;;14.76;100.00;97627.25;5011753;28;20046;-82
2021/09/17 05:23:17;;;;;;;19.02;10.55;;;;;;;14.73;100.00;97636.91;5011511;28;20042;-80
2021/09/17 05:25:44;;;;;;;17.73;10.85;;;;;;;14.79;100.00;97635.50;5011611;28;20037;-81
2021/09/17 05:28:11;;;;;;;19.48;10.77;;;;;;;14.71;100.00;97643.81;5011897;28;20042;-80
2021/09/17 05:30:37;;;;;;;18.42;10.98;;;;;;;14.67;100.00;97635.53;5005138;28;20049;-82
2021/09/17 05:33:05;;;;;;;18.45;9.73;;;;;;;14.78;100.00;97633.13;4990912;28;20470;-81
2021/09/17 05:35:32;;;;;;;15.05;9.95;;;;;;;14.71;100.00;97632.94;5008693;28;20049;-81
2021/09/17 05:37:59;;;;;;;20.55;10.45;;;;;;;14.86;100.00;97651.31;5019796;28;20046;-81
2021/09/17 05:40:29;;;;;;;17.08;10.13;;;;;;;14.88;100.00;97636.19;4992214;28;20478;-81
2021/09/17 05:42:55;;;;;;;17.20;9.88;;;;;;;14.95;100.00;97636.41;4976460;28;20413;-82
2021/09/17 05:45:22;;;;;;;18.42;10.25;;;;;;;14.82;100.00;97647.66;4997386;28;20498;-82
2021/09/17 05:47:48;;;;;;;16.65;10.30;;;;;;;14.95;100.00;97655.50;5014570;28;20544;-82
2021/09/17 05:50:15;;;;;;;14.85;9.85;;;;;;;14.85;100.00;97644.25;5012591;28;20340;-78
2021/09/17 05:52:42;;;;;;;21.10;10.07;;;;;;;14.97;100.00;97639.59;5003459;28;20406;-83
2021/09/17 05:55:17;;;;;;;19.42;9.80;;;;;;;14.99;100.00;97637.31;5016174;28;20038;-81
2021/09/17 05:57:44;;;;;;;;;;;;;;;15.07;100.00;97645.72;5017647;28;20045;-82
2021/09/17 06:00:11;;;;;;;17.73;10.75;;;;;;;15.09;100.00;97635.25;5015806;28;19975;-81
2021/09/17 06:02:38;;;;;;;19.40;10.52;;;;;;;15.10;100.00;97634.13;5015914;28;20049;-82
2021/09/17 06:05:06;;;;;;;20.35;11.18;;;;;;;15.19;100.00;97632.84;5015529;28;20074;-82
2021/09/17 06:07:38;;;;;;;17.77;10.18;;;;;;;15.19;100.00;97638.31;5006909;28;20050;-84
2021/09/17 06:10:05;;;;;;;19.67;10.63;;;;;;;15.27;100.00;97636.59;4998954;28;20042;-82
2021/09/17 06:12:31;;;;;;;16.70;10.05;;;;;;;15.24;100.00;97640.78;4998002;28;20046;-84
2021/09/17 06:14:58;;;;;;;19.00;9.90;;;;;;;15.25;100.00;97636.13;4998799;28;20042;-81
2021/09/17 06:17:25;;;;;;;17.42;9.80;;;;;;;15.41;100.00;97642.44;5015334;28;20054;-83
2021/09/17 06:19:51;;;;;;;13.38;9.30;;;;;;;15.32;100.00;97628.94;5015550;28;20085;-83
2021/09/17 06:22:20;;;;;;;15.88;9.68;;;;;;;15.28;100.00;97638.19;4980791;28;20141;-83
2021/09/17 06:24:46;;;;;;;14.10;9.35;;;;;;;15.36;100.00;97629.03;5013172;28;20026;-83
2021/09/17 06:27:13;;;;;;;18.20;10.00;;;;;;;15.30;100.00;97625.00;4997026;28;20207;-83
2021/09/17 06:29:40;;;;;;;18.05;10.10;;;;;;;15.43;100.00;97615.63;5015946;28;20508;-84
2021/09/17 06:32:06;;;;;;;19.15;9.73;;;;;;;15.46;100.00;97615.75;5010672;28;20045;-82
2021/09/17 06:34:33;;;;;;;17.38;9.65;;;;;;;15.48;100.00;97621.66;5015244;28;20124;-83
2021/09/17 06:37:00;;;;;;;14.77;9.05;;;;;;;15.55;100.00;97621.06;5005441;28;20121;-83
2021/09/17 06:39:26;;;;;;;14.35;8.65;;;;;;;15.50;100.00;97627.56;5020370;28;20564;-80
2021/09/17 06:41:53;;;;;;;12.75;8.77;;;;;;;15.59;100.00;97619.22;4997486;23;20047;-80
2021/09/17 06:44:20;;;;;;;16.45;8.60;;;;;;;15.65;100.00;97615.09;4986537;28;20031;-80
2021/09/17 06:46:48;;;;;;;13.30;8.30;;;;;;;15.68;100.00;97619.88;4986654;28;20177;-80
2021/09/17 06:49:14;;;;;;;11.82;7.90;;;;;;;15.75;100.00;97620.06;4985734;28;20110;-80
2021/09/17 06:51:41;;;;;;;10.43;7.88;;;;;;;15.83;100.00;97618.31;5002109;28;20050;-80
2021/09/17 06:54:07;;;;;;;13.35;8.13;;;;;;;15.95;100.00;97616.31;5003547;28;20043;-79
2021/09/17 06:56:34;;;;;;;13.43;7.15;;;;;;;15.95;100.00;97607.34;5006471;28;20089;-81
2021/09/17 06:59:01;;;;;;;16.25;7.63;;;;;;;16.01;100.00;97611.38;4991147;28;20655;-80
2021/09/17 07:01:28;;;;;;;13.55;7.05;;;;;;;15.92;100.00;97614.31;4974179;28;20085;-80
2021/09/17 07:03:55;;;;;;;10.68;6.57;;;;;;;15.80;100.00;97616.28;4988680;28;20050;-80
2021/09/17 07:06:22;;;;;;;13.27;7.07;;;;;;;15.74;100.00;97614.97;5004220;28;20150;-80
2021/09/17 07:08:49;;;;;;;11.52;7.30;;;;;;;15.70;100.00;97616.78;4986358;28;20054;-80
2021/09/17 07:11:16;;;;;;;11.27;7.10;;;;;;;15.75;100.00;97617.31;4987617;28;20042;-81
2021/09/17 07:13:42;;;;;;;13.48;6.82;;;;;;;15.72;100.00;97612.56;4989346;28;20065;-80
2021/09/17 07:16:09;;;;;;;15.38;6.80;;;;;;;15.71;100.00;97610.19;4987932;28;20042;-81
2021/09/17 07:18:36;;;;;;;11.05;7.28;;;;;;;15.71;100.00;97613.72;4982974;28;20105;-80
2021/09/17 07:21:02;;;;;;;9.38;6.45;;;;;;;15.70;100.00;97623.03;4975910;28;20119;-80
2021/09/17 07:23:30;;;;;;;11.35;6.43;;;;;;;15.67;100.00;97618.28;4975395;28;20046;-79
2021/09/17 07:25:56;;;;;;;14.98;6.72;;;;;;;15.81;100.00;97626.06;4993579;28;20038;-81
2021/09/17 07:28:23;;;;;;;12.25;6.63;;;;;;;15.95;100.00;97623.72;4992910;28;20054;-79
2021/09/17 07:30:50;;;;;;;9.05;6.10;;;;;;;15.83;100.00;97618.31;4993181;28;20142;-80
2021/09/17 07:33:16;;;;;;;11.75;6.03;;;;;;;15.87;100.00;97619.97;4975407;28;20242;-80
2021/09/17 07:35:43;;;;;;;10.82;6.32;;;;;;;15.99;100.00;97621.88;4958064;28;20222;-80
2021/09/17 07:38:09;;;;;;;14.73;6.07;;;;;;;16.11;100.00;97616.31;4975399;28;20050;-80
2021/09/17 07:40:36;;;;;;;13.10;6.15;;;;;;;15.96;100.00;97614.38;4975076;28;20171;-80
2021/09/17 07:43:02;;;;;;;18.25;6.35;;;;;;;15.81;100.00;97621.41;4992971;28;20046;-79
2021/09/17 07:45:35;;;;;;;10.77;5.80;;;;;;;15.55;100.00;97627.31;4976756;28;20411;-79
2021/09/17 07:48:03;;;;;;;10.10;6.50;;;;;;;15.64;100.00;97613.50;4975365;28;20046;-80
2021/09/17 07:50:30;;;;;;;17.42;6.18;;;;;;;15.59;100.00;97613.75;4993005;28;20046;-80
2021/09/17 07:52:57;;;;;;;11.77;5.80;;;;;;;15.59;100.00;97628.19;4975334;28;20136;-79
2021/09/17 07:55:24;;;;;;;12.52;6.00;;;;;;;15.81;100.00;97615.13;4974140;28;20119;-79
2021/09/17 07:57:50;;;;;;;7.93;5.05;;;;;;;16.16;100.00;97629.72;4974806;28;20042;-80
2021/09/17 08:00:17;;;;;;;9.68;5.00;;;;;;;16.09;100.00;97624.88;4992024;28;20050;-79
2021/09/17 08:02:44;;;;;;;11.18;5.53;;;;;;;16.02;100.00;97635.63;4975463;28;20681;-79
2021/09/17 08:05:13;;;;;;;8.13;4.95;;;;;;;15.93;100.00;97634.97;4975656;28;20123;-80
2021/09/17 08:07:40;;;;;;;13.32;4.80;;;;;;;16.19;100.00;97629.03;4974956;28;20507;-81
2021/09/17 08:10:08;;;;;;;12.32;5.20;;;;;;;15.97;100.00;97635.09;4973036;28;20055;-79
2021/09/17 08:12:35;;;;;;;8.88;5.32;;;;;;;15.66;100.00;97641.25;4951115;28;20061;-79
2021/09/17 08:15:04;;;;;;;9.10;5.63;;;;;;;15.63;100.00;97644.69;4987497;28;20051;-79
2021/09/17 08:17:31;;;;;;;15.23;6.47;;;;;;;15.72;100.00;97636.34;4991129;28;20085;-79
2021/09/17 08:20:04;;;;;;;13.48;6.05;;;;;;;15.45;100.00;97657.00;4986749;28;20062;-79
2021/09/17 08:22:31;;;;;;;8.80;6.55;;;;;;;15.54;100.00;97647.53;4991590;28;20117;-80
2021/09/17 08:24:58;;;;;;;12.90;7.13;;;;;;;15.66;100.00;97654.09;4992226;28;20058;-80
2021/09/17 08:27:24;;;;;;;12.68;6.43;;;;;;;15.47;100.00;97654.72;4992982;28;20459;-80
2021/09/17 08:29:51;;;;;;;13.30;6.70;;;;;;;15.71;100.00;97653.84;4992983;28;20050;-81
2021/09/17 08:32:17;;;;;;;12.35;6.50;;;;;;;15.56;100.00;97645.25;4992003;28;20251;-81
2021/09/17 08:34:44;;;;;;;16.08;6.38;;;;;;;15.64;100.00;97646.25;4985673;28;20053;-80
2021/09/17 08:37:11;;;;;;;10.95;6.45;;;;;;;15.96;100.00;97653.41;4975318;28;20375;-81
2021/09/17 08:39:38;;;;;;;11.13;6.75;;;;;;;15.85;100.00;97644.13;4994970;28;20109;-80
2021/09/17 08:42:07;;;;;;;10.50;6.45;;;;;;;15.89;100.00;97646.94;4978282;28;20050;-79
2021/09/17 08:44:33;;;;;;;11.48;6.10;;;;;;;16.11;100.00;97638.19;4995586;28;20050;-80
2021/09/17 08:47:01;;;;;;;11.15;6.20;;;;;;;16.49;100.00;97649.31;4998971;28;20049;-80
2021/09/17 08:49:28;;;;;;;12.35;6.13;;;;;;;16.62;100.00;97641.88;5000710;28;20058;-81
2021/09/17 08:51:55;;;;;;;10.30;5.78;;;;;;;16.55;100.00;97641.66;4995648;28;20491;-80
2021/09/17 08:54:21;;;;;;;10.63;5.32;;;;;;;16.33;100.00;97636.81;4983475;28;20050;-80
2021/09/17 08:56:48;;;;;;;10.20;4.90;;;;;;;16.35;100.00;97639.97;4984501;28;20058;-80
2021/09/17 08:59:15;;;;;;;12.00;5.75;;;;;;;15.93;100.00;97645.09;4974691;28;20045;-79
2021/09/17 09:01:44;;;;;;;9.48;5.82;;;;;;;15.39;100.00;97661.88;4973605;28;20116;-79
2021/09/17 09:04:13;;;;;;;18.05;7.32;;;;;;;14.99;100.00;97672.75;4973836;28;20208;-78
2021/09/17 09:06:42;;;;;;;12.18;7.15;;;;;;;14.77;100.00;97675.94;4971402;28;20507;-79
2021/09/17 09:09:17;;;;;;;11.85;7.22;;;;;;;14.67;100.00;97686.50;4972315;28;20039;-79
2021/09/17 09:11:49;;;;;;;9.45;6.20;;;;;;;14.84;100.00;97684.34;4955647;28;20181;-80
2021/09/17 09:14:16;;;;;;;10.75;5.90;;;;;;;14.81;100.00;97678.78;4957297;28;20404;-79
2021/09/17 09:16:46;;;;;;;9.48;5.88;;;;;;;14.92;100.00;97680.72;4976108;28;20563;-82
2021/09/17 09:19:34;;;;;;;9.88;6.45;;;;;;;14.97;100.00;97691.38;4967865;28;20053;-81
2021/09/17 09:22:04;;;;;;;12.32;7.82;;;;;;;15.11;100.00;97685.59;4997679;28;20056;-80
2021/09/17 09:24:39;;;;;;;16.25;9.13;;;;;;;15.56;100.00;97682.69;4980518;28;20048;-80
2021/09/17 09:27:20;;;;;;;13.65;9.02;;;;;;;15.69;100.00;97667.06;4962486;28;20752;-80
2021/09/17 09:29:51;;;;;;;15.43;9.75;;;;;;;16.03;100.00;97667.25;4981238;28;20080;-81
2021/09/17 09:32:44;;;;;;;17.00;10.15;;;;;;;16.41;100.00;97658.50;4979744;28;20042;-81
2021/09/17 09:35:12;;;;;;;13.52;10.10;;;;;;;16.75;100.00;97660.53;4974299;28;20077;-79
2021/09/17 09:37:39;;;;;;;15.98;9.45;;;;;;;16.65;100.00;97660.25;4996380;28;20054;-81
2021/09/17 09:40:14;;;;;;;12.30;9.07;;;;;;;16.82;100.00;97665.38;4979671;28;20046;-81
2021/09/17 09:42:43;;;;;;;12.63;7.88;;;;;;;16.85;100.00;97661.94;4996601;28;20069;-81
2021/09/17 09:45:21;;;;;;;13.98;6.97;;;;;;;17.00;100.00;97649.38;4975765;28;20042;-80
2021/09/17 09:47:53;;;;;;;10.50;6.43;;;;;;;16.77;100.00;97650.06;4995312;28;20062;-82
2021/09/17 09:50:24;;;;;;;8.50;5.70;;;;;;;17.05;100.00;97649.13;4959874;28;20046;-80
2021/09/17 09:52:57;;;;;;;9.05;5.38;;;;;;;16.63;100.00;97648.91;4972635;28;20050;-81
2021/09/17 09:55:23;;;;;;;12.00;6.15;;;;;;;16.90;100.00;97641.75;4960655;28;20048;-81
2021/09/17 09:57:51;;;;;;;12.85;6.97;;;;;;;16.83;100.00;97638.84;4977842;28;20057;-80
2021/09/17 10:00:18;;;;;;;7.93;6.28;;;;;;;17.16;100.00;97639.97;4996661;28;20045;-82
2021/09/17 10:02:45;;;;;;;8.05;5.35;;;;;;;17.39;100.00;97643.63;4978737;28;20057;-81
2021/09/17 10:05:17;;;;;;;9.43;5.75;;;;;;;17.47;100.00;97649.25;4997511;28;20125;-81
2021/09/17 10:07:44;;;;;;;7.43;5.20;;;;;;;17.39;100.00;97635.41;5003898;28;20050;-81
2021/09/17 10:10:15;;;;;;;5.82;4.93;;;;;;;17.01;100.00;97645.53;4962333;28;20058;-81
2021/09/17 10:12:46;;;;;;;8.35;4.90;;;;;;;17.05;100.00;97644.44;4977991;28;20640;-80
2021/09/17 10:15:15;;;;;;;6.65;4.90;;;;;;;16.65;100.00;97635.66;4977385;28;20113;-81
2021/09/17 10:17:51;;;;;;;6.38;5.15;;;;;;;16.57;100.00;97655.81;4970531;28;20056;-80
2021/09/17 10:20:18;;;;;;;6.90;5.10;;;;;;;16.65;100.00;97652.88;4975405;28;20054;-80
2021/09/17 10:22:45;;;;;;;10.20;5.72;;;;;;;16.68;100.00;97643.97;4993244;28;20414;-81
2021/09/17 10:25:20;;;;;;;16.02;6.22;;;;;;;16.56;100.00;97657.72;4976098;28;20518;-82
2021/09/17 10:28:00;;;;;;;12.80;5.80;;;;;;;16.59;100.00;97645.28;4976346;28;20055;-81
2021/09/17 10:30:29;;;;;;;7.70;4.93;;;;;;;16.41;100.00;97644.03;4977141;28;20058;-81
2021/09/17 10:32:56;;;;;;;9.95;4.35;;;;;;;16.39;100.00;97649.06;5006270;28;20054;-81
2021/09/17 10:35:26;;;;;;;8.18;4.88;;;;;;;16.11;100.00;97654.56;4958704;28;20042;-80
2021/09/17 10:38:06;;;;;;;11.27;6.10;;;;;;;15.95;100.00;97653.75;4956543;28;20046;-79
2021/09/17 10:41:02;;;;;;;8.38;6.22;;;;;;;15.72;100.00;97647.28;4978917;28;20049;-81
2021/09/17 10:43:41;;;;;;;7.47;6.53;;;;;;;15.82;100.00;97642.09;4974074;28;20046;-79
2021/09/17 10:46:19;;;;;;;8.55;7.65;;;;;;;15.57;100.00;97648.78;4959118;28;20778;-81
2021/09/17 10:48:49;;;;;;;9.85;7.93;;;;;;;15.66;100.00;97654.09;4988618;28;20164;-80
2021/09/17 10:51:42;;;;;;;11.82;8.48;;;;;;;15.89;100.00;97652.41;4972573;28;20066;-80
2021/09/17 10:54:19;;;;;;;8.77;6.95;;;;;;;16.03;100.00;97655.50;4982650;28;20084;-80
2021/09/17 10:56:48;;;;;;;9.32;7.88;;;;;;;16.33;100.00;97647.72;4993314;28;20074;-80
2021/09/17 10:59:29;;;;;;;11.35;7.47;;;;;;;16.88;100.00;97644.81;4974941;28;20050;-80
2021/09/17 11:02:06;;;;;;;8.13;6.40;;;;;;;17.10;100.00;97635.97;4974775;28;20128;-81
2021/09/17 11:04:38;;;;;;;9.95;5.90;;;;;;;17.46;100.00;97632.03;4975312;28;20050;-80
2021/09/17 11:07:20;;;;;;;9.35;5.75;;;;;;;19.52;100.00;97632.47;4992474;28;20038;-82
2021/09/17 11:09:50;;;;;;;6.68;3.92;;;;;;;20.76;100.00;97618.06;4992658;28;20050;-81
2021/09/17 11:12:21;;;;;;;8.80;3.20;;;;;;;21.95;100.00;97617.19;4977750;28;20049;-81
2021/09/17 11:15:20;;;;;;;4.88;3.40;;;;;;;19.30;100.00;97619.63;4993024;28;20098;-82
2021/09/17 11:17:47;;;;;;;;;;;;;;;18.24;100.00;97619.88;4965890;28;20074;-81
2021/09/17 11:20:31;;;;;;;9.95;4.60;;;;;;;17.98;100.00;97626.06;4992298;28;19922;-79
2021/09/17 11:23:06;;;;;;;5.38;4.15;;;;;;;17.21;100.00;97628.00;4986609;28;20030;-83
2021/09/17 11:25:40;;;;;;;7.15;4.75;;;;;;;16.70;100.00;97625.25;5006975;28;20070;-82
2021/09/17 11:28:30;;;;;;;7.75;5.20;;;;;;;16.78;100.00;97634.41;4981265;28;20158;-81